sensor_id;sensor_type;location;lat;lon;timestamp;temperature;humidity
63283;DHT22;49407;51.388;0.048;2022-09-03T00:02:34;17.50;99.50
63283;DHT22;49407;51.388;0.048;2022-09-03T00:08:06;17.40;99.50
63283;DHT22;49407;51.388;0.048;2022-09-03T00:10:50;17.30;99.50
63283;DHT22;49407;51.388;0.048;2022-09-03T00:14:03;17.20;99.60
63283;DHT22;49407;51.388;0.048;2022-09-03T00:16:48;17.20;99.70
63283;DHT22;49407;51.388;0.048;2022-09-03T00:19:21;17.10;99.70
63283;DHT22;49407;51.388;0.048;2022-09-03T00:21:57;17.10;99.80
63283;DHT22;49407;51.388;0.048;2022-09-03T00:24:29;17.00;99.80
63283;DHT22;49407;51.388;0.048;2022-09-03T00:27:05;17.00;99.80
63283;DHT22;49407;51.388;0.048;2022-09-03T00:32:46;16.90;99.90
63283;DHT22;49407;51.388;0.048;2022-09-03T00:35:24;16.80;99.90
63283;DHT22;49407;51.388;0.048;2022-09-03T00:37:53;16.80;99.90
63283;DHT22;49407;51.388;0.048;2022-09-03T00:43:21;16.70;99.90
63283;DHT22;49407;51.388;0.048;2022-09-03T00:51:46;16.70;99.90
63283;DHT22;49407;51.388;0.048;2022-09-03T00:54:20;16.60;99.90
63283;DHT22;49407;51.388;0.048;2022-09-03T01:00:06;16.60;99.90
63283;DHT22;49407;51.388;0.048;2022-09-03T01:06:09;16.70;99.90
63283;DHT22;49407;51.388;0.048;2022-09-03T01:14:28;16.90;99.90
63283;DHT22;49407;51.388;0.048;2022-09-03T01:19:55;17.00;99.90
63283;DHT22;49407;51.388;0.048;2022-09-03T01:22:46;17.10;99.90
63283;DHT22;49407;51.388;0.048;2022-09-03T01:37:30;17.20;99.90
63283;DHT22;49407;51.388;0.048;2022-09-03T01:48:02;17.40;99.90
63283;DHT22;49407;51.388;0.048;2022-09-03T01:59:25;17.50;99.90
63283;DHT22;49407;51.388;0.048;2022-09-03T02:02:17;17.50;99.90
63283;DHT22;49407;51.388;0.048;2022-09-03T02:07:55;17.40;99.90
63283;DHT22;49407;51.388;0.048;2022-09-03T02:10:43;17.40;99.90
63283;DHT22;49407;51.388;0.048;2022-09-03T02:13:17;17.30;99.90
63283;DHT22;49407;51.388;0.048;2022-09-03T02:15:47;17.30;99.90
63283;DHT22;49407;51.388;0.048;2022-09-03T02:18:21;17.20;99.90
63283;DHT22;49407;51.388;0.048;2022-09-03T02:20:52;17.10;99.90
63283;DHT22;49407;51.388;0.048;2022-09-03T02:23:20;17.00;99.90
63283;DHT22;49407;51.388;0.048;2022-09-03T02:25:56;17.00;99.90
63283;DHT22;49407;51.388;0.048;2022-09-03T02:28:45;16.80;99.90
63283;DHT22;49407;51.388;0.048;2022-09-03T02:31:12;16.80;99.90
63283;DHT22;49407;51.388;0.048;2022-09-03T02:33:42;16.80;99.90
63283;DHT22;49407;51.388;0.048;2022-09-03T02:36:12;16.70;99.90
63283;DHT22;49407;51.388;0.048;2022-09-03T02:38:59;16.60;99.90
63283;DHT22;49407;51.388;0.048;2022-09-03T02:41:26;16.60;99.90
63283;DHT22;49407;51.388;0.048;2022-09-03T02:44:45;16.50;99.90
63283;DHT22;49407;51.388;0.048;2022-09-03T02:46:59;16.50;99.90
63283;DHT22;49407;51.388;0.048;2022-09-03T02:52:18;16.60;99.90
63283;DHT22;49407;51.388;0.048;2022-09-03T02:54:44;16.70;99.90
63283;DHT22;49407;51.388;0.048;2022-09-03T02:57:14;16.80;99.90
63283;DHT22;49407;51.388;0.048;2022-09-03T03:00:01;16.80;99.90
63283;DHT22;49407;51.388;0.048;2022-09-03T03:02:29;16.90;99.90
63283;DHT22;49407;51.388;0.048;2022-09-03T03:04:56;17.00;99.90
63283;DHT22;49407;51.388;0.048;2022-09-03T03:07:23;17.10;99.90
63283;DHT22;49407;51.388;0.048;2022-09-03T03:09:52;17.20;99.90
63283;DHT22;49407;51.388;0.048;2022-09-03T03:12:19;17.20;99.90
63283;DHT22;49407;51.388;0.048;2022-09-03T03:14:47;17.20;99.90
63283;DHT22;49407;51.388;0.048;2022-09-03T03:17:14;17.30;99.90
63283;DHT22;49407;51.388;0.048;2022-09-03T03:19:45;17.40;99.90
63283;DHT22;49407;51.388;0.048;2022-09-03T03:22:12;17.40;99.90
63283;DHT22;49407;51.388;0.048;2022-09-03T03:24:39;17.40;99.90
63283;DHT22;49407;51.388;0.048;2022-09-03T03:27:06;17.50;99.90
63283;DHT22;49407;51.388;0.048;2022-09-03T03:29:36;17.50;99.90
63283;DHT22;49407;51.388;0.048;2022-09-03T03:32:03;17.50;99.90
63283;DHT22;49407;51.388;0.048;2022-09-03T03:34:30;17.60;99.90
63283;DHT22;49407;51.388;0.048;2022-09-03T03:36:57;17.60;99.90
63283;DHT22;49407;51.388;0.048;2022-09-03T03:39:25;17.70;99.90
63283;DHT22;49407;51.388;0.048;2022-09-03T03:41:52;17.70;99.90
63283;DHT22;49407;51.388;0.048;2022-09-03T03:44:19;17.70;99.90
63283;DHT22;49407;51.388;0.048;2022-09-03T03:46:46;17.70;99.90
63283;DHT22;49407;51.388;0.048;2022-09-03T03:52:17;17.70;99.90
63283;DHT22;49407;51.388;0.048;2022-09-03T03:54:47;17.70;99.90
63283;DHT22;49407;51.388;0.048;2022-09-03T03:57:16;17.70;99.90
63283;DHT22;49407;51.388;0.048;2022-09-03T03:59:45;17.70;99.90
63283;DHT22;49407;51.388;0.048;2022-09-03T04:02:13;17.70;99.90
63283;DHT22;49407;51.388;0.048;2022-09-03T04:04:40;17.70;99.90
63283;DHT22;49407;51.388;0.048;2022-09-03T04:07:07;17.70;99.90
63283;DHT22;49407;51.388;0.048;2022-09-03T04:09:35;17.70;99.90
63283;DHT22;49407;51.388;0.048;2022-09-03T04:12:03;17.80;99.90
63283;DHT22;49407;51.388;0.048;2022-09-03T04:14:34;17.80;99.90
63283;DHT22;49407;51.388;0.048;2022-09-03T04:17:01;17.80;99.90
63283;DHT22;49407;51.388;0.048;2022-09-03T04:19:32;17.80;99.90
63283;DHT22;49407;51.388;0.048;2022-09-03T04:21:59;17.80;99.90
63283;DHT22;49407;51.388;0.048;2022-09-03T04:24:26;17.80;99.90
63283;DHT22;49407;51.388;0.048;2022-09-03T04:26:53;17.90;99.90
63283;DHT22;49407;51.388;0.048;2022-09-03T04:29:22;17.80;99.90
63283;DHT22;49407;51.388;0.048;2022-09-03T04:31:49;17.90;99.90
63283;DHT22;49407;51.388;0.048;2022-09-03T04:34:34;17.80;99.90
63283;DHT22;49407;51.388;0.048;2022-09-03T04:37:01;17.80;99.90
63283;DHT22;49407;51.388;0.048;2022-09-03T04:39:32;17.80;99.90
63283;DHT22;49407;51.388;0.048;2022-09-03T04:41:59;17.80;99.90
63283;DHT22;49407;51.388;0.048;2022-09-03T04:44:26;17.80;99.90
63283;DHT22;49407;51.388;0.048;2022-09-03T04:46:53;17.70;99.90
63283;DHT22;49407;51.388;0.048;2022-09-03T04:52:28;17.50;99.90
63283;DHT22;49407;51.388;0.048;2022-09-03T04:54:57;17.40;99.90
63283;DHT22;49407;51.388;0.048;2022-09-03T04:57:24;17.30;99.90
63283;DHT22;49407;51.388;0.048;2022-09-03T04:59:53;17.30;99.90
63283;DHT22;49407;51.388;0.048;2022-09-03T05:02:21;17.30;99.90
63283;DHT22;49407;51.388;0.048;2022-09-03T05:04:47;17.30;99.90
63283;DHT22;49407;51.388;0.048;2022-09-03T05:07:14;17.30;99.90
63283;DHT22;49407;51.388;0.048;2022-09-03T05:09:47;17.40;99.90
63283;DHT22;49407;51.388;0.048;2022-09-03T05:12:14;17.40;99.90
63283;DHT22;49407;51.388;0.048;2022-09-03T05:14:42;17.40;99.90
63283;DHT22;49407;51.388;0.048;2022-09-03T05:17:09;17.50;99.90
63283;DHT22;49407;51.388;0.048;2022-09-03T05:19:55;17.40;99.90
63283;DHT22;49407;51.388;0.048;2022-09-03T05:22:23;17.40;99.90
63283;DHT22;49407;51.388;0.048;2022-09-03T05:24:50;17.40;99.90
63283;DHT22;49407;51.388;0.048;2022-09-03T05:27:17;17.30;99.90
63283;DHT22;49407;51.388;0.048;2022-09-03T05:29:45;17.20;99.90
63283;DHT22;49407;51.388;0.048;2022-09-03T05:32:12;17.10;99.90
63283;DHT22;49407;51.388;0.048;2022-09-03T05:34:39;17.00;99.90
63283;DHT22;49407;51.388;0.048;2022-09-03T05:37:06;17.00;99.90
63283;DHT22;49407;51.388;0.048;2022-09-03T05:39:33;17.00;99.90
63283;DHT22;49407;51.388;0.048;2022-09-03T05:42:00;16.90;99.90
63283;DHT22;49407;51.388;0.048;2022-09-03T05:44:27;16.90;99.90
63283;DHT22;49407;51.388;0.048;2022-09-03T05:46:54;16.90;99.90
63283;DHT22;49407;51.388;0.048;2022-09-03T05:49:21;16.80;99.90
63283;DHT22;49407;51.388;0.048;2022-09-03T05:51:48;16.80;99.90
63283;DHT22;49407;51.388;0.048;2022-09-03T05:54:15;16.80;99.90
63283;DHT22;49407;51.388;0.048;2022-09-03T05:56:42;16.80;99.90
63283;DHT22;49407;51.388;0.048;2022-09-03T05:59:10;16.80;99.90
63283;DHT22;49407;51.388;0.048;2022-09-03T06:01:41;16.80;99.90
63283;DHT22;49407;51.388;0.048;2022-09-03T06:04:17;16.80;99.90
63283;DHT22;49407;51.388;0.048;2022-09-03T06:06:46;16.80;99.90
63283;DHT22;49407;51.388;0.048;2022-09-03T06:09:19;16.80;99.90
63283;DHT22;49407;51.388;0.048;2022-09-03T06:11:47;16.70;99.90
63283;DHT22;49407;51.388;0.048;2022-09-03T06:14:16;16.70;99.90
63283;DHT22;49407;51.388;0.048;2022-09-03T06:16:45;16.70;99.90
63283;DHT22;49407;51.388;0.048;2022-09-03T06:19:18;16.70;99.90
63283;DHT22;49407;51.388;0.048;2022-09-03T06:21:46;16.70;99.90
63283;DHT22;49407;51.388;0.048;2022-09-03T06:24:18;16.70;99.90
63283;DHT22;49407;51.388;0.048;2022-09-03T06:26:46;16.70;99.90
63283;DHT22;49407;51.388;0.048;2022-09-03T06:29:14;16.70;99.90
63283;DHT22;49407;51.388;0.048;2022-09-03T06:31:41;16.70;99.90
63283;DHT22;49407;51.388;0.048;2022-09-03T06:34:08;16.80;99.90
63283;DHT22;49407;51.388;0.048;2022-09-03T06:36:35;16.90;99.90
63283;DHT22;49407;51.388;0.048;2022-09-03T06:39:05;17.00;99.90
63283;DHT22;49407;51.388;0.048;2022-09-03T06:41:32;17.20;99.90
63283;DHT22;49407;51.388;0.048;2022-09-03T06:44:03;17.40;99.90
63283;DHT22;49407;51.388;0.048;2022-09-03T06:46:33;17.60;99.90
63283;DHT22;49407;51.388;0.048;2022-09-03T06:49:01;17.70;99.90
63283;DHT22;49407;51.388;0.048;2022-09-03T06:51:30;17.90;99.90
63283;DHT22;49407;51.388;0.048;2022-09-03T06:54:05;18.10;99.90
63283;DHT22;49407;51.388;0.048;2022-09-03T06:56:35;18.20;99.90
63283;DHT22;49407;51.388;0.048;2022-09-03T06:59:13;18.40;99.90
63283;DHT22;49407;51.388;0.048;2022-09-03T07:01:41;18.50;99.90
63283;DHT22;49407;51.388;0.048;2022-09-03T07:04:13;18.70;99.90
63283;DHT22;49407;51.388;0.048;2022-09-03T07:06:42;18.80;99.90
63283;DHT22;49407;51.388;0.048;2022-09-03T07:09:11;18.90;99.90
63283;DHT22;49407;51.388;0.048;2022-09-03T07:11:39;19.00;99.90
63283;DHT22;49407;51.388;0.048;2022-09-03T07:14:14;19.20;99.90
63283;DHT22;49407;51.388;0.048;2022-09-03T07:16:42;19.30;99.90
63283;DHT22;49407;51.388;0.048;2022-09-03T07:19:13;19.50;99.90
63283;DHT22;49407;51.388;0.048;2022-09-03T07:21:41;19.70;99.90
63283;DHT22;49407;51.388;0.048;2022-09-03T07:24:15;19.90;99.90
63283;DHT22;49407;51.388;0.048;2022-09-03T07:26:42;20.10;99.90
63283;DHT22;49407;51.388;0.048;2022-09-03T07:29:14;20.30;99.90
63283;DHT22;49407;51.388;0.048;2022-09-03T07:31:42;20.40;99.90
63283;DHT22;49407;51.388;0.048;2022-09-03T07:34:11;20.60;99.90
63283;DHT22;49407;51.388;0.048;2022-09-03T07:36:43;20.80;99.90
63283;DHT22;49407;51.388;0.048;2022-09-03T07:39:18;20.90;99.80
63283;DHT22;49407;51.388;0.048;2022-09-03T07:41:46;21.20;99.40
63283;DHT22;49407;51.388;0.048;2022-09-03T07:44:14;21.30;99.00
63283;DHT22;49407;51.388;0.048;2022-09-03T07:46:44;21.40;98.60
63283;DHT22;49407;51.388;0.048;2022-09-03T07:49:15;21.60;98.30
63283;DHT22;49407;51.388;0.048;2022-09-03T07:51:42;21.80;97.90
63283;DHT22;49407;51.388;0.048;2022-09-03T07:54:10;22.00;97.30
63283;DHT22;49407;51.388;0.048;2022-09-03T07:56:39;22.00;96.70
63283;DHT22;49407;51.388;0.048;2022-09-03T07:59:08;22.10;96.40
63283;DHT22;49407;51.388;0.048;2022-09-03T08:01:36;22.30;96.40
63283;DHT22;49407;51.388;0.048;2022-09-03T08:04:07;22.40;96.30
63283;DHT22;49407;51.388;0.048;2022-09-03T08:06:38;22.50;96.00
63283;DHT22;49407;51.388;0.048;2022-09-03T08:09:10;22.60;95.70
63283;DHT22;49407;51.388;0.048;2022-09-03T08:11:39;22.70;95.40
63283;DHT22;49407;51.388;0.048;2022-09-03T08:14:08;22.70;94.80
63283;DHT22;49407;51.388;0.048;2022-09-03T08:16:38;22.70;94.70
63283;DHT22;49407;51.388;0.048;2022-09-03T08:19:05;22.90;94.80
63283;DHT22;49407;51.388;0.048;2022-09-03T08:21:33;23.00;94.70
63283;DHT22;49407;51.388;0.048;2022-09-03T08:24:01;23.00;94.50
63283;DHT22;49407;51.388;0.048;2022-09-03T08:26:30;23.20;94.10
63283;DHT22;49407;51.388;0.048;2022-09-03T08:28:58;23.20;93.80
63283;DHT22;49407;51.388;0.048;2022-09-03T08:31:26;23.30;93.70
63283;DHT22;49407;51.388;0.048;2022-09-03T08:33:55;23.30;93.70
63283;DHT22;49407;51.388;0.048;2022-09-03T08:36:28;23.40;93.20
63283;DHT22;49407;51.388;0.048;2022-09-03T08:39:02;23.40;93.00
63283;DHT22;49407;51.388;0.048;2022-09-03T08:47:23;23.90;92.20
63283;DHT22;49407;51.388;0.048;2022-09-03T08:53:07;24.30;91.20
63283;DHT22;49407;51.388;0.048;2022-09-03T08:55:46;24.40;90.50
63283;DHT22;49407;51.388;0.048;2022-09-03T08:58:19;24.50;90.20
63283;DHT22;49407;51.388;0.048;2022-09-03T09:03:36;24.70;89.10
63283;DHT22;49407;51.388;0.048;2022-09-03T09:14:49;25.00;86.10
63283;DHT22;49407;51.388;0.048;2022-09-03T09:20:24;25.10;84.10
63283;DHT22;49407;51.388;0.048;2022-09-03T09:23:07;25.20;83.50
63283;DHT22;49407;51.388;0.048;2022-09-03T09:25:46;25.20;81.70
63283;DHT22;49407;51.388;0.048;2022-09-03T09:28:22;25.30;82.30
63283;DHT22;49407;51.388;0.048;2022-09-03T09:30:54;25.40;81.70
63283;DHT22;49407;51.388;0.048;2022-09-03T09:33:22;25.60;81.30
63283;DHT22;49407;51.388;0.048;2022-09-03T09:35:49;25.70;80.60
63283;DHT22;49407;51.388;0.048;2022-09-03T09:38:32;25.80;80.40
63283;DHT22;49407;51.388;0.048;2022-09-03T09:43:39;25.90;78.80
63283;DHT22;49407;51.388;0.048;2022-09-03T09:46:12;26.00;78.70
63283;DHT22;49407;51.388;0.048;2022-09-03T09:48:56;26.10;78.40
63283;DHT22;49407;51.388;0.048;2022-09-03T09:51:25;26.30;77.80
63283;DHT22;49407;51.388;0.048;2022-09-03T09:54:25;26.40;76.90
63283;DHT22;49407;51.388;0.048;2022-09-03T09:57:05;26.40;76.50
63283;DHT22;49407;51.388;0.048;2022-09-03T09:59:33;26.40;76.30
63283;DHT22;49407;51.388;0.048;2022-09-03T10:02:11;26.40;75.80
63283;DHT22;49407;51.388;0.048;2022-09-03T10:04:47;26.60;74.60
63283;DHT22;49407;51.388;0.048;2022-09-03T10:10:06;27.20;72.80
63283;DHT22;49407;51.388;0.048;2022-09-03T10:12:55;27.50;71.70
63283;DHT22;49407;51.388;0.048;2022-09-03T10:21:03;28.20;69.40
63283;DHT22;49407;51.388;0.048;2022-09-03T10:26:24;28.30;68.40
63283;DHT22;49407;51.388;0.048;2022-09-03T10:29:02;28.70;68.60
63283;DHT22;49407;51.388;0.048;2022-09-03T10:34:31;29.40;66.50
63283;DHT22;49407;51.388;0.048;2022-09-03T10:45:17;30.20;61.70
63283;DHT22;49407;51.388;0.048;2022-09-03T10:56:01;30.60;60.00
63283;DHT22;49407;51.388;0.048;2022-09-03T11:07:23;30.20;60.30
63283;DHT22;49407;51.388;0.048;2022-09-03T11:10:09;29.90;60.30
63283;DHT22;49407;51.388;0.048;2022-09-03T11:18:28;30.20;59.40
63283;DHT22;49407;51.388;0.048;2022-09-03T11:21:00;30.30;59.00
63283;DHT22;49407;51.388;0.048;2022-09-03T11:23:40;30.30;58.20
63283;DHT22;49407;51.388;0.048;2022-09-03T11:26:10;30.40;58.20
63283;DHT22;49407;51.388;0.048;2022-09-03T11:29:17;30.60;57.80
63283;DHT22;49407;51.388;0.048;2022-09-03T11:37:28;31.10;57.00
63283;DHT22;49407;51.388;0.048;2022-09-03T11:42:39;30.90;55.90
63283;DHT22;49407;51.388;0.048;2022-09-03T11:47:52;30.70;55.60
63283;DHT22;49407;51.388;0.048;2022-09-03T11:50:31;30.70;55.60
63283;DHT22;49407;51.388;0.048;2022-09-03T11:53:20;30.70;55.40
63283;DHT22;49407;51.388;0.048;2022-09-03T11:56:08;30.70;55.20
63283;DHT22;49407;51.388;0.048;2022-09-03T11:59:16;30.60;55.00
63283;DHT22;49407;51.388;0.048;2022-09-03T12:04:29;30.60;54.70
63283;DHT22;49407;51.388;0.048;2022-09-03T12:13:12;30.60;55.10
63283;DHT22;49407;51.388;0.048;2022-09-03T12:18:24;30.50;55.50
63283;DHT22;49407;51.388;0.048;2022-09-03T12:26:12;30.20;55.50
63283;DHT22;49407;51.388;0.048;2022-09-03T12:28:43;30.10;55.90
63283;DHT22;49407;51.388;0.048;2022-09-03T12:31:19;30.20;55.60
63283;DHT22;49407;51.388;0.048;2022-09-03T12:34:02;30.10;55.50
63283;DHT22;49407;51.388;0.048;2022-09-03T12:36:41;30.20;55.60
63283;DHT22;49407;51.388;0.048;2022-09-03T12:39:29;30.20;55.00
63283;DHT22;49407;51.388;0.048;2022-09-03T12:42:27;30.30;54.70
63283;DHT22;49407;51.388;0.048;2022-09-03T12:44:55;30.30;54.90
63283;DHT22;49407;51.388;0.048;2022-09-03T12:47:30;30.50;55.00
63283;DHT22;49407;51.388;0.048;2022-09-03T12:50:14;30.60;54.70
63283;DHT22;49407;51.388;0.048;2022-09-03T12:52:49;30.70;54.40
63283;DHT22;49407;51.388;0.048;2022-09-03T12:55:42;30.80;54.10
63283;DHT22;49407;51.388;0.048;2022-09-03T13:00:59;31.10;53.20
63283;DHT22;49407;51.388;0.048;2022-09-03T13:03:45;31.30;52.70
63283;DHT22;49407;51.388;0.048;2022-09-03T13:06:14;31.70;52.70
63283;DHT22;49407;51.388;0.048;2022-09-03T13:08:50;32.20;51.80
63283;DHT22;49407;51.388;0.048;2022-09-03T13:11:21;32.70;51.40
63283;DHT22;49407;51.388;0.048;2022-09-03T13:14:12;33.10;50.70
63283;DHT22;49407;51.388;0.048;2022-09-03T13:27:45;33.20;49.80
63283;DHT22;49407;51.388;0.048;2022-09-03T13:30:28;33.40;49.40
63283;DHT22;49407;51.388;0.048;2022-09-03T13:33:04;33.80;48.70
63283;DHT22;49407;51.388;0.048;2022-09-03T13:41:48;34.50;46.80
63283;DHT22;49407;51.388;0.048;2022-09-03T13:44:41;34.50;46.30
63283;DHT22;49407;51.388;0.048;2022-09-03T13:50:21;34.40;46.50
63283;DHT22;49407;51.388;0.048;2022-09-03T13:53:00;34.10;46.80
63283;DHT22;49407;51.388;0.048;2022-09-03T13:58:40;34.00;47.00
63283;DHT22;49407;51.388;0.048;2022-09-03T14:01:21;34.00;46.80
63283;DHT22;49407;51.388;0.048;2022-09-03T14:09:14;34.10;46.70
63283;DHT22;49407;51.388;0.048;2022-09-03T14:12:13;34.30;46.80
63283;DHT22;49407;51.388;0.048;2022-09-03T14:15:08;34.30;46.60
63283;DHT22;49407;51.388;0.048;2022-09-03T14:20:33;34.00;47.00
63283;DHT22;49407;51.388;0.048;2022-09-03T14:25:58;34.00;47.10
63283;DHT22;49407;51.388;0.048;2022-09-03T14:28:30;34.20;46.90
63283;DHT22;49407;51.388;0.048;2022-09-03T14:36:57;33.70;47.20
63283;DHT22;49407;51.388;0.048;2022-09-03T14:39:43;33.40;47.60
63283;DHT22;49407;51.388;0.048;2022-09-03T14:45:12;33.20;47.70
63283;DHT22;49407;51.388;0.048;2022-09-03T14:56:21;32.90;47.80
63283;DHT22;49407;51.388;0.048;2022-09-03T15:01:37;32.50;48.20
63283;DHT22;49407;51.388;0.048;2022-09-03T15:07:05;32.30;48.30
63283;DHT22;49407;51.388;0.048;2022-09-03T15:10:07;32.10;48.40
63283;DHT22;49407;51.388;0.048;2022-09-03T15:12:44;31.90;48.50
63283;DHT22;49407;51.388;0.048;2022-09-03T15:20:49;31.20;49.70
63283;DHT22;49407;51.388;0.048;2022-09-03T15:34:33;30.60;50.20
63283;DHT22;49407;51.388;0.048;2022-09-03T15:37:16;30.30;50.50
63283;DHT22;49407;51.388;0.048;2022-09-03T15:40:41;30.10;50.90
63283;DHT22;49407;51.388;0.048;2022-09-03T15:42:51;30.00;51.50
63283;DHT22;49407;51.388;0.048;2022-09-03T15:45:32;29.90;51.90
63283;DHT22;49407;51.388;0.048;2022-09-03T15:51:24;29.50;52.60
63283;DHT22;49407;51.388;0.048;2022-09-03T15:54:06;29.30;53.10
63283;DHT22;49407;51.388;0.048;2022-09-03T15:56:40;29.10;53.50
63283;DHT22;49407;51.388;0.048;2022-09-03T15:59:24;29.00;53.80
63283;DHT22;49407;51.388;0.048;2022-09-03T16:11:15;29.00;54.50
63283;DHT22;49407;51.388;0.048;2022-09-03T16:13:48;28.80;54.80
63283;DHT22;49407;51.388;0.048;2022-09-03T16:16:23;28.70;55.20
63283;DHT22;49407;51.388;0.048;2022-09-03T16:19:54;28.60;55.40
63283;DHT22;49407;51.388;0.048;2022-09-03T16:21:59;28.40;55.70
63283;DHT22;49407;51.388;0.048;2022-09-03T16:24:52;28.20;56.00
63283;DHT22;49407;51.388;0.048;2022-09-03T16:30:20;27.90;56.70
63283;DHT22;49407;51.388;0.048;2022-09-03T16:33:01;27.70;57.00
63283;DHT22;49407;51.388;0.048;2022-09-03T16:38:44;27.40;57.80
63283;DHT22;49407;51.388;0.048;2022-09-03T16:44:21;27.20;58.30
63283;DHT22;49407;51.388;0.048;2022-09-03T16:49:51;26.90;59.10
63283;DHT22;49407;51.388;0.048;2022-09-03T17:02:17;26.80;59.80
63283;DHT22;49407;51.388;0.048;2022-09-03T17:05:54;26.70;59.80
63283;DHT22;49407;51.388;0.048;2022-09-03T17:10:48;26.20;60.30
63283;DHT22;49407;51.388;0.048;2022-09-03T17:27:29;25.10;62.50
63283;DHT22;49407;51.388;0.048;2022-09-03T17:35:57;24.70;63.80
63283;DHT22;49407;51.388;0.048;2022-09-03T17:44:14;24.50;64.60
63283;DHT22;49407;51.388;0.048;2022-09-03T17:47:09;24.30;65.00
63283;DHT22;49407;51.388;0.048;2022-09-03T17:49:47;24.10;65.50
63283;DHT22;49407;51.388;0.048;2022-09-03T17:52:34;24.10;65.60
63283;DHT22;49407;51.388;0.048;2022-09-03T18:01:02;23.90;66.50
63283;DHT22;49407;51.388;0.048;2022-09-03T18:03:53;23.90;66.80
63283;DHT22;49407;51.388;0.048;2022-09-03T18:09:11;23.80;67.30
63283;DHT22;49407;51.388;0.048;2022-09-03T18:12:02;23.70;67.50
63283;DHT22;49407;51.388;0.048;2022-09-03T18:14:43;23.70;67.80
63283;DHT22;49407;51.388;0.048;2022-09-03T18:17:24;23.60;68.50
63283;DHT22;49407;51.388;0.048;2022-09-03T18:20:02;23.60;68.10
63283;DHT22;49407;51.388;0.048;2022-09-03T18:22:55;23.50;68.40
63283;DHT22;49407;51.388;0.048;2022-09-03T18:25:47;23.40;68.70
63283;DHT22;49407;51.388;0.048;2022-09-03T18:28:47;23.30;68.80
63283;DHT22;49407;51.388;0.048;2022-09-03T18:31:34;23.20;69.30
63283;DHT22;49407;51.388;0.048;2022-09-03T18:34:28;23.10;69.40
63283;DHT22;49407;51.388;0.048;2022-09-03T18:37:21;23.10;70.00
63283;DHT22;49407;51.388;0.048;2022-09-03T18:40:11;23.00;70.20
63283;DHT22;49407;51.388;0.048;2022-09-03T18:43:19;22.90;70.40
63283;DHT22;49407;51.388;0.048;2022-09-03T18:49:54;22.60;71.10
63283;DHT22;49407;51.388;0.048;2022-09-03T18:52:53;22.50;71.30
63283;DHT22;49407;51.388;0.048;2022-09-03T18:56:07;22.40;71.60
63283;DHT22;49407;51.388;0.048;2022-09-03T19:02:28;22.20;72.10
63283;DHT22;49407;51.388;0.048;2022-09-03T19:05:32;22.00;72.40
63283;DHT22;49407;51.388;0.048;2022-09-03T19:11:40;21.90;72.70
63283;DHT22;49407;51.388;0.048;2022-09-03T19:15:13;21.90;73.00
63283;DHT22;49407;51.388;0.048;2022-09-03T19:18:04;21.80;73.10
63283;DHT22;49407;51.388;0.048;2022-09-03T19:23:59;21.70;73.50
63283;DHT22;49407;51.388;0.048;2022-09-03T19:27:08;21.60;73.50
63283;DHT22;49407;51.388;0.048;2022-09-03T19:30:59;21.50;73.80
63283;DHT22;49407;51.388;0.048;2022-09-03T19:34:29;21.40;73.80
63283;DHT22;49407;51.388;0.048;2022-09-03T19:46:28;21.00;74.60
63283;DHT22;49407;51.388;0.048;2022-09-03T19:52:50;20.80;75.10
63283;DHT22;49407;51.388;0.048;2022-09-03T19:55:53;20.70;75.30
63283;DHT22;49407;51.388;0.048;2022-09-03T19:58:49;20.60;75.70
63283;DHT22;49407;51.388;0.048;2022-09-03T20:01:36;20.50;75.70
63283;DHT22;49407;51.388;0.048;2022-09-03T20:04:36;20.50;76.40
63283;DHT22;49407;51.388;0.048;2022-09-03T20:07:22;20.30;76.30
63283;DHT22;49407;51.388;0.048;2022-09-03T20:10:13;20.30;76.40
63283;DHT22;49407;51.388;0.048;2022-09-03T20:13:10;20.20;76.70
63283;DHT22;49407;51.388;0.048;2022-09-03T20:18:43;20.10;77.20
63283;DHT22;49407;51.388;0.048;2022-09-03T20:21:37;19.90;77.60
63283;DHT22;49407;51.388;0.048;2022-09-03T20:29:43;19.80;78.10
63283;DHT22;49407;51.388;0.048;2022-09-03T20:41:12;19.50;79.10
63283;DHT22;49407;51.388;0.048;2022-09-03T20:52:21;19.30;80.10
63283;DHT22;49407;51.388;0.048;2022-09-03T20:55:00;19.20;80.30
63283;DHT22;49407;51.388;0.048;2022-09-03T21:00:25;19.20;80.80
63283;DHT22;49407;51.388;0.048;2022-09-03T21:19:07;18.80;82.00
63283;DHT22;49407;51.388;0.048;2022-09-03T21:27:00;18.70;82.80
63283;DHT22;49407;51.388;0.048;2022-09-03T21:29:40;18.60;82.90
63283;DHT22;49407;51.388;0.048;2022-09-03T21:32:22;18.60;83.20
63283;DHT22;49407;51.388;0.048;2022-09-03T21:35:41;18.50;83.40
63283;DHT22;49407;51.388;0.048;2022-09-03T21:38:03;18.50;83.60
63283;DHT22;49407;51.388;0.048;2022-09-03T21:40:32;18.40;83.80
63283;DHT22;49407;51.388;0.048;2022-09-03T21:43:20;18.40;83.80
63283;DHT22;49407;51.388;0.048;2022-09-03T21:46:14;18.40;84.00
63283;DHT22;49407;51.388;0.048;2022-09-03T21:48:51;18.30;84.20
63283;DHT22;49407;51.388;0.048;2022-09-03T21:51:32;18.30;84.50
63283;DHT22;49407;51.388;0.048;2022-09-03T21:54:08;18.20;84.70
63283;DHT22;49407;51.388;0.048;2022-09-03T21:57:02;18.20;84.90
63283;DHT22;49407;51.388;0.048;2022-09-03T22:02:30;18.10;85.40
63283;DHT22;49407;51.388;0.048;2022-09-03T22:04:59;18.10;85.40
63283;DHT22;49407;51.388;0.048;2022-09-03T22:10:25;18.00;86.00
63283;DHT22;49407;51.388;0.048;2022-09-03T22:15:45;18.00;86.30
63283;DHT22;49407;51.388;0.048;2022-09-03T22:18:29;17.90;86.40
63283;DHT22;49407;51.388;0.048;2022-09-03T22:21:16;17.90;86.70
63283;DHT22;49407;51.388;0.048;2022-09-03T22:26:42;17.80;87.00
63283;DHT22;49407;51.388;0.048;2022-09-03T22:43:33;17.60;88.90
63283;DHT22;49407;51.388;0.048;2022-09-03T22:46:03;17.60;89.00
63283;DHT22;49407;51.388;0.048;2022-09-03T22:51:43;17.50;89.50
63283;DHT22;49407;51.388;0.048;2022-09-03T22:54:25;17.50;89.50
63283;DHT22;49407;51.388;0.048;2022-09-03T22:56:55;17.50;89.70
63283;DHT22;49407;51.388;0.048;2022-09-03T22:59:28;17.50;90.20
63283;DHT22;49407;51.388;0.048;2022-09-03T23:02:13;17.40;90.00
63283;DHT22;49407;51.388;0.048;2022-09-03T23:05:21;17.40;90.20
63283;DHT22;49407;51.388;0.048;2022-09-03T23:10:31;17.40;90.30
63283;DHT22;49407;51.388;0.048;2022-09-03T23:13:09;17.40;90.60
63283;DHT22;49407;51.388;0.048;2022-09-03T23:15:40;17.40;90.70
63283;DHT22;49407;51.388;0.048;2022-09-03T23:21:35;17.30;90.80
63283;DHT22;49407;51.388;0.048;2022-09-03T23:24:16;17.30;90.80
63283;DHT22;49407;51.388;0.048;2022-09-03T23:26:48;17.30;90.90
63283;DHT22;49407;51.388;0.048;2022-09-03T23:29:34;17.30;90.90
63283;DHT22;49407;51.388;0.048;2022-09-03T23:32:03;17.30;91.10
63283;DHT22;49407;51.388;0.048;2022-09-03T23:34:31;17.30;91.10
63283;DHT22;49407;51.388;0.048;2022-09-03T23:54:15;17.30;92.00
